sensor_id;sensor_type;location;lat;lon;timestamp;P1;durP1;ratioP1;P2;durP2;ratioP2
9224;SDS011;4647;48.072;11.616;2023-03-14T00:01:17;2.17;;;1.00;;
9224;SDS011;4647;48.072;11.616;2023-03-14T00:03:47;2.53;;;1.10;;
9224;SDS011;4647;48.072;11.616;2023-03-14T00:06:17;2.00;;;1.00;;
9224;SDS011;4647;48.072;11.616;2023-03-14T00:08:46;2.60;;;1.10;;
9224;SDS011;4647;48.072;11.616;2023-03-14T00:11:17;0.80;;;0.80;;
9224;SDS011;4647;48.072;11.616;2023-03-14T00:13:47;1.20;;;1.00;;
9224;SDS011;4647;48.072;11.616;2023-03-14T00:16:18;1.03;;;0.90;;
9224;SDS011;4647;48.072;11.616;2023-03-14T00:18:48;2.40;;;1.40;;
9224;SDS011;4647;48.072;11.616;2023-03-14T00:21:17;1.53;;;0.90;;
9224;SDS011;4647;48.072;11.616;2023-03-14T00:23:46;1.90;;;0.90;;
9224;SDS011;4647;48.072;11.616;2023-03-14T00:26:15;1.00;;;0.90;;
9224;SDS011;4647;48.072;11.616;2023-03-14T00:28:45;0.97;;;0.90;;
9224;SDS011;4647;48.072;11.616;2023-03-14T00:31:17;0.93;;;0.73;;
9224;SDS011;4647;48.072;11.616;2023-03-14T00:33:46;2.57;;;0.97;;
9224;SDS011;4647;48.072;11.616;2023-03-14T00:36:15;1.23;;;0.70;;
9224;SDS011;4647;48.072;11.616;2023-03-14T00:38:47;0.60;;;0.60;;
9224;SDS011;4647;48.072;11.616;2023-03-14T00:41:18;1.53;;;0.60;;
9224;SDS011;4647;48.072;11.616;2023-03-14T00:43:49;0.70;;;0.67;;
9224;SDS011;4647;48.072;11.616;2023-03-14T00:46:21;0.83;;;0.63;;
9224;SDS011;4647;48.072;11.616;2023-03-14T00:48:50;1.73;;;0.80;;
9224;SDS011;4647;48.072;11.616;2023-03-14T00:51:18;0.70;;;0.70;;
9224;SDS011;4647;48.072;11.616;2023-03-14T00:53:47;0.70;;;0.70;;
9224;SDS011;4647;48.072;11.616;2023-03-14T00:56:15;2.47;;;0.67;;
9224;SDS011;4647;48.072;11.616;2023-03-14T00:58:44;0.70;;;0.70;;
9224;SDS011;4647;48.072;11.616;2023-03-14T01:01:14;1.23;;;0.83;;
9224;SDS011;4647;48.072;11.616;2023-03-14T01:03:46;0.67;;;0.67;;
9224;SDS011;4647;48.072;11.616;2023-03-14T01:06:16;0.73;;;0.70;;
9224;SDS011;4647;48.072;11.616;2023-03-14T01:08:46;0.70;;;0.70;;
9224;SDS011;4647;48.072;11.616;2023-03-14T01:11:16;1.43;;;0.80;;
9224;SDS011;4647;48.072;11.616;2023-03-14T01:13:46;0.57;;;0.57;;
9224;SDS011;4647;48.072;11.616;2023-03-14T01:16:14;0.90;;;0.60;;
9224;SDS011;4647;48.072;11.616;2023-03-14T01:18:47;1.27;;;0.77;;
9224;SDS011;4647;48.072;11.616;2023-03-14T01:21:17;1.17;;;0.73;;
9224;SDS011;4647;48.072;11.616;2023-03-14T01:23:47;2.23;;;0.80;;
9224;SDS011;4647;48.072;11.616;2023-03-14T01:26:17;0.53;;;0.53;;
9224;SDS011;4647;48.072;11.616;2023-03-14T01:28:48;2.07;;;0.83;;
9224;SDS011;4647;48.072;11.616;2023-03-14T01:31:18;0.87;;;0.70;;
9224;SDS011;4647;48.072;11.616;2023-03-14T01:33:49;1.67;;;0.90;;
9224;SDS011;4647;48.072;11.616;2023-03-14T01:36:18;0.60;;;0.60;;
9224;SDS011;4647;48.072;11.616;2023-03-14T01:38:47;0.70;;;0.70;;
9224;SDS011;4647;48.072;11.616;2023-03-14T01:41:17;2.27;;;0.73;;
9224;SDS011;4647;48.072;11.616;2023-03-14T01:43:47;1.00;;;0.77;;
9224;SDS011;4647;48.072;11.616;2023-03-14T01:46:20;1.03;;;0.80;;
9224;SDS011;4647;48.072;11.616;2023-03-14T01:48:58;1.40;;;0.80;;
9224;SDS011;4647;48.072;11.616;2023-03-14T01:51:33;3.67;;;0.90;;
9224;SDS011;4647;48.072;11.616;2023-03-14T01:54:09;0.60;;;0.60;;
9224;SDS011;4647;48.072;11.616;2023-03-14T01:56:40;2.50;;;0.97;;
9224;SDS011;4647;48.072;11.616;2023-03-14T01:59:11;1.70;;;0.87;;
9224;SDS011;4647;48.072;11.616;2023-03-14T02:01:41;1.83;;;1.07;;
9224;SDS011;4647;48.072;11.616;2023-03-14T02:04:15;1.70;;;0.90;;
9224;SDS011;4647;48.072;11.616;2023-03-14T02:06:48;1.23;;;0.90;;
9224;SDS011;4647;48.072;11.616;2023-03-14T02:09:19;2.40;;;0.90;;
9224;SDS011;4647;48.072;11.616;2023-03-14T02:11:48;2.33;;;1.00;;
9224;SDS011;4647;48.072;11.616;2023-03-14T02:14:24;1.80;;;0.80;;
9224;SDS011;4647;48.072;11.616;2023-03-14T02:16:56;2.77;;;0.93;;
9224;SDS011;4647;48.072;11.616;2023-03-14T02:19:31;1.40;;;0.67;;
9224;SDS011;4647;48.072;11.616;2023-03-14T02:22:10;2.60;;;0.90;;
9224;SDS011;4647;48.072;11.616;2023-03-14T02:24:43;2.73;;;0.93;;
9224;SDS011;4647;48.072;11.616;2023-03-14T02:27:20;1.33;;;0.90;;
9224;SDS011;4647;48.072;11.616;2023-03-14T02:29:50;0.70;;;0.70;;
9224;SDS011;4647;48.072;11.616;2023-03-14T02:32:21;0.93;;;0.87;;
9224;SDS011;4647;48.072;11.616;2023-03-14T02:34:52;1.23;;;1.00;;
9224;SDS011;4647;48.072;11.616;2023-03-14T02:37:25;2.10;;;0.93;;
9224;SDS011;4647;48.072;11.616;2023-03-14T02:40:00;2.10;;;0.90;;
9224;SDS011;4647;48.072;11.616;2023-03-14T02:42:32;0.63;;;0.47;;
9224;SDS011;4647;48.072;11.616;2023-03-14T02:45:24;1.77;;;0.80;;
9224;SDS011;4647;48.072;11.616;2023-03-14T02:48:07;1.37;;;0.93;;
9224;SDS011;4647;48.072;11.616;2023-03-14T02:50:38;0.90;;;0.80;;
9224;SDS011;4647;48.072;11.616;2023-03-14T02:53:07;1.67;;;0.77;;
9224;SDS011;4647;48.072;11.616;2023-03-14T02:55:36;0.70;;;0.70;;
9224;SDS011;4647;48.072;11.616;2023-03-14T02:58:07;1.93;;;0.70;;
9224;SDS011;4647;48.072;11.616;2023-03-14T03:00:36;2.10;;;0.80;;
9224;SDS011;4647;48.072;11.616;2023-03-14T03:03:04;1.23;;;0.70;;
9224;SDS011;4647;48.072;11.616;2023-03-14T03:05:33;1.13;;;0.67;;
9224;SDS011;4647;48.072;11.616;2023-03-14T03:08:02;0.90;;;0.70;;
9224;SDS011;4647;48.072;11.616;2023-03-14T03:10:31;0.80;;;0.60;;
9224;SDS011;4647;48.072;11.616;2023-03-14T03:13:00;0.73;;;0.73;;
9224;SDS011;4647;48.072;11.616;2023-03-14T03:15:32;0.60;;;0.50;;
9224;SDS011;4647;48.072;11.616;2023-03-14T03:18:01;0.60;;;0.60;;
9224;SDS011;4647;48.072;11.616;2023-03-14T03:20:29;0.80;;;0.70;;
9224;SDS011;4647;48.072;11.616;2023-03-14T03:22:58;0.60;;;0.60;;
9224;SDS011;4647;48.072;11.616;2023-03-14T03:25:27;0.50;;;0.50;;
9224;SDS011;4647;48.072;11.616;2023-03-14T03:27:56;0.77;;;0.60;;
9224;SDS011;4647;48.072;11.616;2023-03-14T03:30:24;2.83;;;0.40;;
9224;SDS011;4647;48.072;11.616;2023-03-14T03:32:56;0.93;;;0.70;;
9224;SDS011;4647;48.072;11.616;2023-03-14T03:35:24;1.53;;;0.60;;
9224;SDS011;4647;48.072;11.616;2023-03-14T03:37:53;0.97;;;0.80;;
9224;SDS011;4647;48.072;11.616;2023-03-14T03:40:21;1.87;;;0.70;;
9224;SDS011;4647;48.072;11.616;2023-03-14T03:42:50;0.50;;;0.50;;
9224;SDS011;4647;48.072;11.616;2023-03-14T03:45:19;1.67;;;0.50;;
9224;SDS011;4647;48.072;11.616;2023-03-14T03:47:48;1.60;;;0.30;;
9224;SDS011;4647;48.072;11.616;2023-03-14T03:50:20;0.60;;;0.60;;
9224;SDS011;4647;48.072;11.616;2023-03-14T03:52:48;0.43;;;0.43;;
9224;SDS011;4647;48.072;11.616;2023-03-14T03:55:18;0.50;;;0.40;;
9224;SDS011;4647;48.072;11.616;2023-03-14T03:57:46;0.70;;;0.60;;
9224;SDS011;4647;48.072;11.616;2023-03-14T04:00:15;0.30;;;0.30;;
9224;SDS011;4647;48.072;11.616;2023-03-14T04:02:44;2.63;;;0.60;;
9224;SDS011;4647;48.072;11.616;2023-03-14T04:05:13;0.40;;;0.40;;
9224;SDS011;4647;48.072;11.616;2023-03-14T04:07:44;1.20;;;0.50;;
9224;SDS011;4647;48.072;11.616;2023-03-14T04:10:12;0.30;;;0.30;;
9224;SDS011;4647;48.072;11.616;2023-03-14T04:12:41;1.00;;;0.50;;
9224;SDS011;4647;48.072;11.616;2023-03-14T04:15:10;0.27;;;0.27;;
9224;SDS011;4647;48.072;11.616;2023-03-14T04:17:38;0.50;;;0.50;;
9224;SDS011;4647;48.072;11.616;2023-03-14T04:20:07;0.67;;;0.40;;
9224;SDS011;4647;48.072;11.616;2023-03-14T04:22:37;0.57;;;0.50;;
9224;SDS011;4647;48.072;11.616;2023-03-14T04:25:09;0.80;;;0.50;;
9224;SDS011;4647;48.072;11.616;2023-03-14T04:27:38;0.43;;;0.43;;
9224;SDS011;4647;48.072;11.616;2023-03-14T04:30:07;0.43;;;0.40;;
9224;SDS011;4647;48.072;11.616;2023-03-14T04:32:38;0.50;;;0.50;;
9224;SDS011;4647;48.072;11.616;2023-03-14T04:35:07;1.63;;;0.30;;
9224;SDS011;4647;48.072;11.616;2023-03-14T04:37:36;0.40;;;0.40;;
9224;SDS011;4647;48.072;11.616;2023-03-14T04:40:05;0.40;;;0.40;;
9224;SDS011;4647;48.072;11.616;2023-03-14T04:42:38;0.43;;;0.40;;
9224;SDS011;4647;48.072;11.616;2023-03-14T04:45:07;1.57;;;0.40;;
9224;SDS011;4647;48.072;11.616;2023-03-14T04:47:36;0.40;;;0.40;;
9224;SDS011;4647;48.072;11.616;2023-03-14T04:50:05;0.30;;;0.30;;
9224;SDS011;4647;48.072;11.616;2023-03-14T04:52:34;0.67;;;0.53;;
9224;SDS011;4647;48.072;11.616;2023-03-14T04:55:03;0.50;;;0.50;;
9224;SDS011;4647;48.072;11.616;2023-03-14T04:57:35;0.50;;;0.50;;
9224;SDS011;4647;48.072;11.616;2023-03-14T05:00:04;0.50;;;0.50;;
9224;SDS011;4647;48.072;11.616;2023-03-14T05:02:34;1.27;;;0.60;;
9224;SDS011;4647;48.072;11.616;2023-03-14T05:05:03;0.50;;;0.50;;
9224;SDS011;4647;48.072;11.616;2023-03-14T05:07:32;0.50;;;0.50;;
9224;SDS011;4647;48.072;11.616;2023-03-14T05:10:00;3.00;;;0.60;;
9224;SDS011;4647;48.072;11.616;2023-03-14T05:12:29;0.40;;;0.40;;
9224;SDS011;4647;48.072;11.616;2023-03-14T05:15:00;0.60;;;0.60;;
9224;SDS011;4647;48.072;11.616;2023-03-14T05:17:29;0.40;;;0.40;;
9224;SDS011;4647;48.072;11.616;2023-03-14T05:19:58;1.90;;;0.60;;
9224;SDS011;4647;48.072;11.616;2023-03-14T05:22:26;0.60;;;0.60;;
9224;SDS011;4647;48.072;11.616;2023-03-14T05:24:55;0.80;;;0.63;;
9224;SDS011;4647;48.072;11.616;2023-03-14T05:27:24;0.60;;;0.60;;
9224;SDS011;4647;48.072;11.616;2023-03-14T05:29:52;0.40;;;0.40;;
9224;SDS011;4647;48.072;11.616;2023-03-14T05:32:24;0.50;;;0.50;;
9224;SDS011;4647;48.072;11.616;2023-03-14T05:34:52;2.90;;;0.60;;
9224;SDS011;4647;48.072;11.616;2023-03-14T05:37:23;0.60;;;0.60;;
9224;SDS011;4647;48.072;11.616;2023-03-14T05:39:52;3.30;;;0.43;;
9224;SDS011;4647;48.072;11.616;2023-03-14T05:42:20;0.80;;;0.60;;
9224;SDS011;4647;48.072;11.616;2023-03-14T05:44:49;0.70;;;0.40;;
9224;SDS011;4647;48.072;11.616;2023-03-14T05:47:17;0.50;;;0.50;;
9224;SDS011;4647;48.072;11.616;2023-03-14T05:49:48;1.63;;;0.60;;
9224;SDS011;4647;48.072;11.616;2023-03-14T05:52:17;0.53;;;0.47;;
9224;SDS011;4647;48.072;11.616;2023-03-14T05:54:45;0.40;;;0.40;;
9224;SDS011;4647;48.072;11.616;2023-03-14T05:57:14;0.60;;;0.60;;
9224;SDS011;4647;48.072;11.616;2023-03-14T05:59:42;1.43;;;0.60;;
9224;SDS011;4647;48.072;11.616;2023-03-14T06:02:10;0.87;;;0.57;;
9224;SDS011;4647;48.072;11.616;2023-03-14T06:04:39;0.60;;;0.47;;
9224;SDS011;4647;48.072;11.616;2023-03-14T06:07:10;0.93;;;0.70;;
9224;SDS011;4647;48.072;11.616;2023-03-14T06:09:38;1.00;;;0.77;;
9224;SDS011;4647;48.072;11.616;2023-03-14T06:12:07;0.50;;;0.50;;
9224;SDS011;4647;48.072;11.616;2023-03-14T06:14:35;0.40;;;0.40;;
9224;SDS011;4647;48.072;11.616;2023-03-14T06:17:04;0.40;;;0.40;;
9224;SDS011;4647;48.072;11.616;2023-03-14T06:19:32;1.40;;;0.40;;
9224;SDS011;4647;48.072;11.616;2023-03-14T06:22:01;0.50;;;0.50;;
9224;SDS011;4647;48.072;11.616;2023-03-14T06:24:32;1.63;;;0.83;;
9224;SDS011;4647;48.072;11.616;2023-03-14T06:27:01;0.90;;;0.70;;
9224;SDS011;4647;48.072;11.616;2023-03-14T06:29:30;0.43;;;0.43;;
9224;SDS011;4647;48.072;11.616;2023-03-14T06:31:58;0.60;;;0.60;;
9224;SDS011;4647;48.072;11.616;2023-03-14T06:34:27;0.73;;;0.53;;
9224;SDS011;4647;48.072;11.616;2023-03-14T06:36:56;0.70;;;0.60;;
9224;SDS011;4647;48.072;11.616;2023-03-14T06:39:24;0.70;;;0.60;;
9224;SDS011;4647;48.072;11.616;2023-03-14T06:41:55;1.43;;;0.80;;
9224;SDS011;4647;48.072;11.616;2023-03-14T06:44:24;1.33;;;0.90;;
9224;SDS011;4647;48.072;11.616;2023-03-14T06:46:52;0.97;;;0.80;;
9224;SDS011;4647;48.072;11.616;2023-03-14T06:49:21;0.67;;;0.67;;
9224;SDS011;4647;48.072;11.616;2023-03-14T06:51:49;0.83;;;0.83;;
9224;SDS011;4647;48.072;11.616;2023-03-14T06:54:18;0.70;;;0.70;;
9224;SDS011;4647;48.072;11.616;2023-03-14T06:56:47;1.20;;;0.87;;
9224;SDS011;4647;48.072;11.616;2023-03-14T06:59:18;1.00;;;0.90;;
9224;SDS011;4647;48.072;11.616;2023-03-14T07:01:47;2.83;;;0.90;;
9224;SDS011;4647;48.072;11.616;2023-03-14T07:04:16;0.70;;;0.70;;
9224;SDS011;4647;48.072;11.616;2023-03-14T07:06:45;1.10;;;0.83;;
9224;SDS011;4647;48.072;11.616;2023-03-14T07:09:14;0.93;;;0.90;;
9224;SDS011;4647;48.072;11.616;2023-03-14T07:11:43;0.90;;;0.90;;
9224;SDS011;4647;48.072;11.616;2023-03-14T07:14:12;2.33;;;0.97;;
9224;SDS011;4647;48.072;11.616;2023-03-14T07:16:43;0.80;;;0.80;;
9224;SDS011;4647;48.072;11.616;2023-03-14T07:19:11;1.30;;;1.10;;
9224;SDS011;4647;48.072;11.616;2023-03-14T07:21:40;2.00;;;1.30;;
9224;SDS011;4647;48.072;11.616;2023-03-14T07:24:08;1.70;;;1.03;;
9224;SDS011;4647;48.072;11.616;2023-03-14T07:26:38;1.27;;;1.10;;
9224;SDS011;4647;48.072;11.616;2023-03-14T07:29:06;1.20;;;1.10;;
9224;SDS011;4647;48.072;11.616;2023-03-14T07:31:35;1.87;;;1.00;;
9224;SDS011;4647;48.072;11.616;2023-03-14T07:34:06;1.30;;;1.20;;
9224;SDS011;4647;48.072;11.616;2023-03-14T07:36:34;2.60;;;1.07;;
9224;SDS011;4647;48.072;11.616;2023-03-14T07:39:03;2.27;;;1.07;;
9224;SDS011;4647;48.072;11.616;2023-03-14T07:41:32;1.60;;;1.00;;
9224;SDS011;4647;48.072;11.616;2023-03-14T07:44:00;1.30;;;0.90;;
9224;SDS011;4647;48.072;11.616;2023-03-14T07:46:29;0.90;;;0.70;;
9224;SDS011;4647;48.072;11.616;2023-03-14T07:48:58;0.70;;;0.70;;
9224;SDS011;4647;48.072;11.616;2023-03-14T07:51:29;0.97;;;0.80;;
9224;SDS011;4647;48.072;11.616;2023-03-14T07:53:57;1.13;;;0.63;;
9224;SDS011;4647;48.072;11.616;2023-03-14T07:56:25;0.97;;;0.87;;
9224;SDS011;4647;48.072;11.616;2023-03-14T07:58:54;2.20;;;0.60;;
9224;SDS011;4647;48.072;11.616;2023-03-14T08:01:22;0.93;;;0.53;;
9224;SDS011;4647;48.072;11.616;2023-03-14T08:03:51;0.67;;;0.60;;
9224;SDS011;4647;48.072;11.616;2023-03-14T08:06:19;0.77;;;0.70;;
9224;SDS011;4647;48.072;11.616;2023-03-14T08:08:50;0.60;;;0.60;;
9224;SDS011;4647;48.072;11.616;2023-03-14T08:11:19;1.00;;;0.90;;
9224;SDS011;4647;48.072;11.616;2023-03-14T08:13:47;1.10;;;0.70;;
9224;SDS011;4647;48.072;11.616;2023-03-14T08:16:17;1.03;;;0.70;;
9224;SDS011;4647;48.072;11.616;2023-03-14T08:18:46;1.20;;;0.80;;
9224;SDS011;4647;48.072;11.616;2023-03-14T08:21:14;0.60;;;0.60;;
9224;SDS011;4647;48.072;11.616;2023-03-14T08:23:43;1.03;;;0.83;;
9224;SDS011;4647;48.072;11.616;2023-03-14T08:26:14;0.63;;;0.63;;
9224;SDS011;4647;48.072;11.616;2023-03-14T08:28:42;0.93;;;0.60;;
9224;SDS011;4647;48.072;11.616;2023-03-14T08:31:11;0.70;;;0.70;;
9224;SDS011;4647;48.072;11.616;2023-03-14T08:33:39;0.73;;;0.53;;
9224;SDS011;4647;48.072;11.616;2023-03-14T08:36:08;0.60;;;0.60;;
9224;SDS011;4647;48.072;11.616;2023-03-14T08:38:37;1.13;;;0.90;;
9224;SDS011;4647;48.072;11.616;2023-03-14T08:41:08;2.27;;;0.80;;
9224;SDS011;4647;48.072;11.616;2023-03-14T08:43:39;0.67;;;0.60;;
9224;SDS011;4647;48.072;11.616;2023-03-14T08:46:07;0.83;;;0.83;;
9224;SDS011;4647;48.072;11.616;2023-03-14T08:48:36;0.73;;;0.73;;
9224;SDS011;4647;48.072;11.616;2023-03-14T08:51:05;1.10;;;1.00;;
9224;SDS011;4647;48.072;11.616;2023-03-14T08:53:36;0.97;;;0.90;;
9224;SDS011;4647;48.072;11.616;2023-03-14T08:56:05;0.97;;;0.70;;
9224;SDS011;4647;48.072;11.616;2023-03-14T08:58:35;0.60;;;0.60;;
9224;SDS011;4647;48.072;11.616;2023-03-14T09:01:07;0.90;;;0.70;;
9224;SDS011;4647;48.072;11.616;2023-03-14T09:03:36;2.33;;;0.80;;
9224;SDS011;4647;48.072;11.616;2023-03-14T09:06:06;0.70;;;0.70;;
9224;SDS011;4647;48.072;11.616;2023-03-14T09:08:36;2.30;;;0.90;;
9224;SDS011;4647;48.072;11.616;2023-03-14T09:11:06;0.77;;;0.77;;
9224;SDS011;4647;48.072;11.616;2023-03-14T09:13:35;0.67;;;0.67;;
9224;SDS011;4647;48.072;11.616;2023-03-14T09:16:06;1.10;;;1.00;;
9224;SDS011;4647;48.072;11.616;2023-03-14T09:18:36;0.80;;;0.80;;
9224;SDS011;4647;48.072;11.616;2023-03-14T09:21:05;1.63;;;0.90;;
9224;SDS011;4647;48.072;11.616;2023-03-14T09:23:33;5.30;;;0.87;;
9224;SDS011;4647;48.072;11.616;2023-03-14T09:26:02;4.67;;;1.00;;
9224;SDS011;4647;48.072;11.616;2023-03-14T09:28:31;1.30;;;1.10;;
9224;SDS011;4647;48.072;11.616;2023-03-14T09:31:07;1.00;;;0.90;;
9224;SDS011;4647;48.072;11.616;2023-03-14T09:33:37;0.90;;;0.90;;
9224;SDS011;4647;48.072;11.616;2023-03-14T09:36:07;1.20;;;1.00;;
9224;SDS011;4647;48.072;11.616;2023-03-14T09:38:36;1.40;;;1.20;;
9224;SDS011;4647;48.072;11.616;2023-03-14T09:41:10;1.87;;;1.10;;
9224;SDS011;4647;48.072;11.616;2023-03-14T09:43:42;1.40;;;1.00;;
9224;SDS011;4647;48.072;11.616;2023-03-14T09:46:15;1.53;;;1.07;;
9224;SDS011;4647;48.072;11.616;2023-03-14T09:48:44;1.67;;;1.10;;
9224;SDS011;4647;48.072;11.616;2023-03-14T09:51:14;1.60;;;1.20;;
9224;SDS011;4647;48.072;11.616;2023-03-14T09:53:47;2.37;;;1.17;;
9224;SDS011;4647;48.072;11.616;2023-03-14T09:56:17;2.30;;;0.97;;
9224;SDS011;4647;48.072;11.616;2023-03-14T09:58:49;1.20;;;1.10;;
9224;SDS011;4647;48.072;11.616;2023-03-14T10:01:25;3.30;;;1.10;;
9224;SDS011;4647;48.072;11.616;2023-03-14T10:03:56;3.47;;;1.13;;
9224;SDS011;4647;48.072;11.616;2023-03-14T10:06:26;1.47;;;1.10;;
9224;SDS011;4647;48.072;11.616;2023-03-14T10:08:57;1.43;;;0.90;;
9224;SDS011;4647;48.072;11.616;2023-03-14T10:11:25;1.43;;;1.17;;
9224;SDS011;4647;48.072;11.616;2023-03-14T10:14:04;2.80;;;1.07;;
9224;SDS011;4647;48.072;11.616;2023-03-14T10:16:40;0.97;;;0.90;;
9224;SDS011;4647;48.072;11.616;2023-03-14T10:19:10;3.20;;;1.00;;
9224;SDS011;4647;48.072;11.616;2023-03-14T10:21:40;0.80;;;0.80;;
9224;SDS011;4647;48.072;11.616;2023-03-14T10:24:16;1.60;;;0.90;;
9224;SDS011;4647;48.072;11.616;2023-03-14T10:26:48;1.60;;;1.00;;
9224;SDS011;4647;48.072;11.616;2023-03-14T10:29:18;2.23;;;1.00;;
9224;SDS011;4647;48.072;11.616;2023-03-14T10:31:50;2.13;;;1.03;;
9224;SDS011;4647;48.072;11.616;2023-03-14T10:34:23;2.63;;;1.13;;
9224;SDS011;4647;48.072;11.616;2023-03-14T10:36:54;2.50;;;1.20;;
9224;SDS011;4647;48.072;11.616;2023-03-14T10:39:29;1.27;;;1.10;;
9224;SDS011;4647;48.072;11.616;2023-03-14T10:42:10;1.93;;;1.00;;
9224;SDS011;4647;48.072;11.616;2023-03-14T10:44:42;1.57;;;0.90;;
9224;SDS011;4647;48.072;11.616;2023-03-14T10:47:18;1.77;;;1.20;;
9224;SDS011;4647;48.072;11.616;2023-03-14T10:49:50;1.90;;;0.90;;
9224;SDS011;4647;48.072;11.616;2023-03-14T10:52:20;1.43;;;1.00;;
9224;SDS011;4647;48.072;11.616;2023-03-14T10:54:53;1.63;;;0.90;;
9224;SDS011;4647;48.072;11.616;2023-03-14T10:57:24;2.33;;;1.20;;
9224;SDS011;4647;48.072;11.616;2023-03-14T10:59:53;0.80;;;0.80;;
9224;SDS011;4647;48.072;11.616;2023-03-14T11:02:33;2.30;;;0.70;;
9224;SDS011;4647;48.072;11.616;2023-03-14T11:05:20;1.73;;;1.00;;
9224;SDS011;4647;48.072;11.616;2023-03-14T11:07:56;1.30;;;0.90;;
9224;SDS011;4647;48.072;11.616;2023-03-14T11:10:31;2.27;;;0.80;;
9224;SDS011;4647;48.072;11.616;2023-03-14T11:13:06;1.07;;;0.80;;
9224;SDS011;4647;48.072;11.616;2023-03-14T11:15:45;1.57;;;0.80;;
9224;SDS011;4647;48.072;11.616;2023-03-14T11:21:18;5.73;;;1.40;;
9224;SDS011;4647;48.072;11.616;2023-03-14T11:23:53;3.70;;;0.90;;
9224;SDS011;4647;48.072;11.616;2023-03-14T11:26:31;2.10;;;0.60;;
9224;SDS011;4647;48.072;11.616;2023-03-14T11:29:08;0.80;;;0.70;;
9224;SDS011;4647;48.072;11.616;2023-03-14T11:31:47;3.17;;;0.80;;
9224;SDS011;4647;48.072;11.616;2023-03-14T11:34:20;2.57;;;0.70;;
9224;SDS011;4647;48.072;11.616;2023-03-14T11:36:56;2.53;;;0.63;;
9224;SDS011;4647;48.072;11.616;2023-03-14T11:39:29;1.03;;;0.50;;
9224;SDS011;4647;48.072;11.616;2023-03-14T11:42:07;0.57;;;0.50;;
9224;SDS011;4647;48.072;11.616;2023-03-14T11:44:40;0.50;;;0.50;;
9224;SDS011;4647;48.072;11.616;2023-03-14T11:47:13;0.70;;;0.70;;
9224;SDS011;4647;48.072;11.616;2023-03-14T11:49:50;2.33;;;0.77;;
9224;SDS011;4647;48.072;11.616;2023-03-14T11:52:27;1.63;;;0.70;;
9224;SDS011;4647;48.072;11.616;2023-03-14T11:54:58;1.20;;;0.60;;
9224;SDS011;4647;48.072;11.616;2023-03-14T11:57:33;0.60;;;0.60;;
9224;SDS011;4647;48.072;11.616;2023-03-14T12:00:02;0.80;;;0.60;;
9224;SDS011;4647;48.072;11.616;2023-03-14T12:02:40;0.63;;;0.50;;
9224;SDS011;4647;48.072;11.616;2023-03-14T12:08:19;0.77;;;0.50;;
9224;SDS011;4647;48.072;11.616;2023-03-14T12:10:54;3.33;;;0.60;;
9224;SDS011;4647;48.072;11.616;2023-03-14T12:13:27;0.87;;;0.60;;
9224;SDS011;4647;48.072;11.616;2023-03-14T12:15:57;2.20;;;0.80;;
9224;SDS011;4647;48.072;11.616;2023-03-14T12:18:28;1.20;;;0.80;;
9224;SDS011;4647;48.072;11.616;2023-03-14T12:21:01;0.60;;;0.60;;
9224;SDS011;4647;48.072;11.616;2023-03-14T12:23:34;0.73;;;0.50;;
9224;SDS011;4647;48.072;11.616;2023-03-14T12:26:13;0.50;;;0.50;;
9224;SDS011;4647;48.072;11.616;2023-03-14T12:28:48;0.50;;;0.50;;
9224;SDS011;4647;48.072;11.616;2023-03-14T12:37:14;0.60;;;0.60;;
9224;SDS011;4647;48.072;11.616;2023-03-14T12:39:56;0.77;;;0.73;;
9224;SDS011;4647;48.072;11.616;2023-03-14T12:42:38;1.07;;;0.70;;
9224;SDS011;4647;48.072;11.616;2023-03-14T12:45:21;1.37;;;0.70;;
9224;SDS011;4647;48.072;11.616;2023-03-14T12:47:56;0.70;;;0.70;;
9224;SDS011;4647;48.072;11.616;2023-03-14T12:50:32;0.63;;;0.57;;
9224;SDS011;4647;48.072;11.616;2023-03-14T12:56:09;1.43;;;0.60;;
9224;SDS011;4647;48.072;11.616;2023-03-14T12:58:48;0.63;;;0.40;;
9224;SDS011;4647;48.072;11.616;2023-03-14T13:01:30;0.70;;;0.60;;
9224;SDS011;4647;48.072;11.616;2023-03-14T13:04:03;0.60;;;0.60;;
9224;SDS011;4647;48.072;11.616;2023-03-14T13:06:49;0.90;;;0.70;;
9224;SDS011;4647;48.072;11.616;2023-03-14T13:09:35;1.20;;;0.70;;
9224;SDS011;4647;48.072;11.616;2023-03-14T13:12:22;1.23;;;0.47;;
9224;SDS011;4647;48.072;11.616;2023-03-14T13:14:57;0.40;;;0.40;;
9224;SDS011;4647;48.072;11.616;2023-03-14T13:17:31;0.40;;;0.40;;
9224;SDS011;4647;48.072;11.616;2023-03-14T13:20:02;2.87;;;0.70;;
9224;SDS011;4647;48.072;11.616;2023-03-14T13:22:37;0.40;;;0.40;;
9224;SDS011;4647;48.072;11.616;2023-03-14T13:25:09;0.97;;;0.40;;
9224;SDS011;4647;48.072;11.616;2023-03-14T13:27:41;1.13;;;0.60;;
9224;SDS011;4647;48.072;11.616;2023-03-14T13:30:15;0.83;;;0.60;;
9224;SDS011;4647;48.072;11.616;2023-03-14T13:32:47;4.80;;;0.60;;
9224;SDS011;4647;48.072;11.616;2023-03-14T13:35:17;0.50;;;0.50;;
9224;SDS011;4647;48.072;11.616;2023-03-14T13:37:51;2.00;;;0.50;;
9224;SDS011;4647;48.072;11.616;2023-03-14T13:40:28;2.47;;;0.60;;
9224;SDS011;4647;48.072;11.616;2023-03-14T13:43:05;0.47;;;0.47;;
9224;SDS011;4647;48.072;11.616;2023-03-14T13:45:41;3.10;;;0.60;;
9224;SDS011;4647;48.072;11.616;2023-03-14T13:48:12;0.50;;;0.50;;
9224;SDS011;4647;48.072;11.616;2023-03-14T13:53:31;0.30;;;0.30;;
9224;SDS011;4647;48.072;11.616;2023-03-14T13:56:01;2.27;;;0.50;;
9224;SDS011;4647;48.072;11.616;2023-03-14T13:58:34;1.30;;;0.57;;
9224;SDS011;4647;48.072;11.616;2023-03-14T14:01:09;0.53;;;0.53;;
9224;SDS011;4647;48.072;11.616;2023-03-14T14:03:41;0.47;;;0.47;;
9224;SDS011;4647;48.072;11.616;2023-03-14T14:06:17;0.40;;;0.40;;
9224;SDS011;4647;48.072;11.616;2023-03-14T14:08:51;0.67;;;0.40;;
9224;SDS011;4647;48.072;11.616;2023-03-14T14:11:31;0.53;;;0.53;;
9224;SDS011;4647;48.072;11.616;2023-03-14T14:14:10;1.97;;;0.50;;
9224;SDS011;4647;48.072;11.616;2023-03-14T14:16:41;0.37;;;0.37;;
9224;SDS011;4647;48.072;11.616;2023-03-14T14:19:12;0.47;;;0.47;;
9224;SDS011;4647;48.072;11.616;2023-03-14T14:21:42;0.40;;;0.40;;
9224;SDS011;4647;48.072;11.616;2023-03-14T14:24:11;0.40;;;0.40;;
9224;SDS011;4647;48.072;11.616;2023-03-14T14:26:46;0.90;;;0.53;;
9224;SDS011;4647;48.072;11.616;2023-03-14T14:29:23;0.50;;;0.50;;
9224;SDS011;4647;48.072;11.616;2023-03-14T14:32:01;0.67;;;0.50;;
9224;SDS011;4647;48.072;11.616;2023-03-14T14:34:37;2.27;;;0.70;;
9224;SDS011;4647;48.072;11.616;2023-03-14T14:37:17;0.47;;;0.47;;
9224;SDS011;4647;48.072;11.616;2023-03-14T14:39:49;0.73;;;0.40;;
9224;SDS011;4647;48.072;11.616;2023-03-14T14:42:20;0.80;;;0.50;;
9224;SDS011;4647;48.072;11.616;2023-03-14T14:44:55;1.23;;;0.50;;
9224;SDS011;4647;48.072;11.616;2023-03-14T14:47:25;1.23;;;0.40;;
9224;SDS011;4647;48.072;11.616;2023-03-14T14:49:58;1.60;;;0.70;;
9224;SDS011;4647;48.072;11.616;2023-03-14T14:52:33;1.60;;;0.77;;
9224;SDS011;4647;48.072;11.616;2023-03-14T14:55:11;1.57;;;0.80;;
9224;SDS011;4647;48.072;11.616;2023-03-14T14:57:40;0.40;;;0.40;;
9224;SDS011;4647;48.072;11.616;2023-03-14T15:00:20;0.50;;;0.50;;
9224;SDS011;4647;48.072;11.616;2023-03-14T15:02:51;0.47;;;0.40;;
9224;SDS011;4647;48.072;11.616;2023-03-14T15:05:22;0.53;;;0.50;;
9224;SDS011;4647;48.072;11.616;2023-03-14T15:07:52;2.83;;;0.57;;
9224;SDS011;4647;48.072;11.616;2023-03-14T15:10:21;0.50;;;0.43;;
9224;SDS011;4647;48.072;11.616;2023-03-14T15:12:51;0.83;;;0.60;;
9224;SDS011;4647;48.072;11.616;2023-03-14T15:15:22;0.57;;;0.50;;
9224;SDS011;4647;48.072;11.616;2023-03-14T15:17:51;0.53;;;0.53;;
9224;SDS011;4647;48.072;11.616;2023-03-14T15:20:19;0.43;;;0.40;;
9224;SDS011;4647;48.072;11.616;2023-03-14T15:22:49;0.40;;;0.40;;
9224;SDS011;4647;48.072;11.616;2023-03-14T15:25:17;0.57;;;0.57;;
9224;SDS011;4647;48.072;11.616;2023-03-14T15:27:46;0.50;;;0.50;;
9224;SDS011;4647;48.072;11.616;2023-03-14T15:30:14;1.40;;;0.50;;
9224;SDS011;4647;48.072;11.616;2023-03-14T15:32:46;0.53;;;0.50;;
9224;SDS011;4647;48.072;11.616;2023-03-14T15:35:14;1.47;;;0.83;;
9224;SDS011;4647;48.072;11.616;2023-03-14T15:37:44;0.50;;;0.50;;
9224;SDS011;4647;48.072;11.616;2023-03-14T15:40:12;1.60;;;0.60;;
9224;SDS011;4647;48.072;11.616;2023-03-14T15:42:43;0.83;;;0.53;;